createdAt,value
2022-11-25T00:01:33.501Z,100350.97
2022-11-25T00:04:00.826Z,100362.63
2022-11-25T00:06:35.477Z,100353.72
2022-11-25T00:09:04.025Z,100364.41
2022-11-25T00:11:30.893Z,100361.00
2022-11-25T00:13:58.437Z,100367.19
2022-11-25T00:16:28.861Z,100375.91
2022-11-25T00:18:56.924Z,100365.22
2022-11-25T00:21:26.638Z,100373.25
2022-11-25T00:23:54.140Z,100377.69
2022-11-25T00:26:22.496Z,100371.63
2022-11-25T00:28:50.268Z,100384.03
2022-11-25T00:31:22.239Z,100385.66
2022-11-25T00:33:49.461Z,100379.53
2022-11-25T00:36:20.362Z,100386.69
2022-11-25T00:38:47.952Z,100391.09
2022-11-25T00:41:33.396Z,100390.31
2022-11-25T00:44:18.122Z,100393.03
2022-11-25T00:46:44.654Z,100389.63
2022-11-25T00:49:12.389Z,100387.66
2022-11-25T00:51:39.455Z,100383.88
2022-11-25T00:54:06.083Z,100393.56
2022-11-25T00:56:32.667Z,100394.84
2022-11-25T00:58:59.332Z,100398.78
2022-11-25T01:01:26.949Z,100401.06
2022-11-25T01:03:54.175Z,100401.31
2022-11-25T01:06:22.001Z,100400.63
2022-11-25T01:08:48.852Z,100405.50
2022-11-25T01:11:18.608Z,100411.63
2022-11-25T01:13:45.960Z,100416.19
2022-11-25T01:16:16.254Z,100408.22
2022-11-25T01:18:43.309Z,100417.53
2022-11-25T01:21:20.076Z,100429.38
2022-11-25T01:23:48.529Z,100418.50
2022-11-25T01:26:17.868Z,100421.56
2022-11-25T01:28:44.812Z,100423.19
2022-11-25T01:31:20.020Z,100420.41
2022-11-25T01:33:48.393Z,100427.25
2022-11-25T01:36:17.808Z,100420.16
2022-11-25T01:38:45.599Z,100417.41
2022-11-25T01:41:14.420Z,100413.03
2022-11-25T01:43:41.970Z,100414.59
2022-11-25T01:46:17.642Z,100411.31
2022-11-25T01:49:01.137Z,100414.22
2022-11-25T01:51:35.001Z,100417.75
2022-11-25T01:54:04.941Z,100410.81
2022-11-25T01:56:36.384Z,100421.81
2022-11-25T01:59:03.124Z,100421.97
2022-11-25T02:01:29.830Z,100426.19
2022-11-25T02:03:58.750Z,100432.13
2022-11-25T02:06:28.806Z,100427.19
2022-11-25T02:09:07.210Z,100434.41
2022-11-25T02:11:36.711Z,100429.31
2022-11-25T02:14:03.728Z,100431.25
2022-11-25T02:16:30.432Z,100437.59
2022-11-25T02:18:57.553Z,100435.16
2022-11-25T02:21:35.901Z,100433.84
2022-11-25T02:24:17.012Z,100438.06
2022-11-25T02:26:43.682Z,100427.59
2022-11-25T02:29:10.302Z,100432.13
2022-11-25T02:31:36.885Z,100439.41
2022-11-25T02:34:03.423Z,100444.53
2022-11-25T02:36:29.994Z,100434.53
2022-11-25T02:39:00.577Z,100437.13
2022-11-25T02:41:37.380Z,100436.41
2022-11-25T02:44:04.240Z,100433.91
2022-11-25T02:46:31.452Z,100433.06
2022-11-25T02:49:15.025Z,100429.63
2022-11-25T02:51:44.516Z,100429.53
2022-11-25T02:54:13.078Z,100431.97
2022-11-25T02:56:40.462Z,100432.06
2022-11-25T02:59:07.857Z,100441.72
2022-11-25T03:01:35.434Z,100434.53
2022-11-25T03:04:02.513Z,100433.69
2022-11-25T03:06:30.367Z,100443.28
2022-11-25T03:08:57.890Z,100444.22
2022-11-25T03:11:44.896Z,100444.00
2022-11-25T03:14:11.716Z,100442.19
2022-11-25T03:16:38.314Z,100445.09
2022-11-25T03:19:04.903Z,100443.91
2022-11-25T03:21:31.716Z,100456.16
2022-11-25T03:23:58.244Z,100451.53
2022-11-25T03:26:26.133Z,100455.00
2022-11-25T03:28:52.910Z,100463.91
2022-11-25T03:31:19.677Z,100461.63
2022-11-25T03:33:46.388Z,100466.88
2022-11-25T03:36:13.145Z,100477.72
2022-11-25T03:38:40.060Z,100481.84
2022-11-25T03:41:06.933Z,100488.31
2022-11-25T03:43:33.494Z,100494.09
2022-11-25T03:46:00.045Z,100487.97
2022-11-25T03:48:26.617Z,100493.28
2022-11-25T03:50:53.228Z,100490.22
2022-11-25T03:53:19.746Z,100497.06
2022-11-25T03:55:48.032Z,100492.88
2022-11-25T03:58:14.595Z,100501.31
2022-11-25T04:00:41.073Z,100502.59
2022-11-25T04:03:07.572Z,100510.84
2022-11-25T04:05:34.109Z,100511.84
2022-11-25T04:08:00.674Z,100509.59
2022-11-25T04:10:27.257Z,100517.16
2022-11-25T04:12:54.741Z,100517.31
2022-11-25T04:15:21.641Z,100516.44
2022-11-25T04:17:48.358Z,100511.69
2022-11-25T04:20:15.439Z,100512.59
2022-11-25T04:22:42.392Z,100519.31
2022-11-25T04:25:10.055Z,100528.53
2022-11-25T04:27:36.577Z,100535.31
2022-11-25T04:30:03.402Z,100542.38
2022-11-25T04:32:29.928Z,100538.03
2022-11-25T04:34:56.465Z,100536.97
2022-11-25T04:37:23.003Z,100538.97
2022-11-25T04:39:49.649Z,100540.34
2022-11-25T04:42:37.972Z,100540.47
2022-11-25T04:45:25.422Z,100551.41
2022-11-25T04:47:52.675Z,100557.88
2022-11-25T04:50:21.405Z,100556.41
2022-11-25T04:52:48.087Z,100555.41
2022-11-25T04:55:14.665Z,100565.25
2022-11-25T04:57:41.328Z,100580.34
2022-11-25T05:00:09.538Z,100583.97
2022-11-25T05:02:36.655Z,100592.59
2022-11-25T05:05:03.582Z,100593.28
2022-11-25T05:07:30.412Z,100603.47
2022-11-25T05:09:57.419Z,100601.16
2022-11-25T05:12:27.393Z,100606.31
2022-11-25T05:14:54.045Z,100607.91
2022-11-25T05:17:26.833Z,100611.19
2022-11-25T05:19:53.435Z,100599.72
2022-11-25T05:22:26.020Z,100601.28
2022-11-25T05:24:52.526Z,100610.78
2022-11-25T05:27:19.888Z,100607.25
2022-11-25T05:29:49.166Z,100605.53
2022-11-25T05:32:19.788Z,100617.94
2022-11-25T05:34:46.338Z,100622.97
2022-11-25T05:37:14.193Z,100619.44
2022-11-25T05:39:40.704Z,100620.38
2022-11-25T05:42:07.582Z,100621.47
2022-11-25T05:44:34.111Z,100624.28
2022-11-25T05:47:00.612Z,100627.72
2022-11-25T05:49:27.100Z,100629.31
2022-11-25T05:51:53.608Z,100633.69
2022-11-25T05:54:20.160Z,100635.78
2022-11-25T05:56:46.696Z,100642.69
2022-11-25T05:59:13.251Z,100642.63
2022-11-25T06:01:39.793Z,100636.66
2022-11-25T06:04:06.811Z,100646.31
2022-11-25T06:06:33.331Z,100648.09
2022-11-25T06:09:00.493Z,100652.63
2022-11-25T06:11:27.523Z,100660.06
2022-11-25T06:13:56.804Z,100664.22
2022-11-25T06:16:23.996Z,100669.53
2022-11-25T06:18:50.922Z,100673.47
2022-11-25T06:21:18.211Z,100675.41
2022-11-25T06:23:47.679Z,100685.06
2022-11-25T06:26:22.111Z,100674.84
2022-11-25T06:28:50.490Z,100688.97
2022-11-25T06:31:20.457Z,100680.69
2022-11-25T06:33:49.158Z,100682.41
2022-11-25T06:36:18.944Z,100683.47
2022-11-25T06:38:53.744Z,100695.97
2022-11-25T06:41:21.918Z,100702.13
2022-11-25T06:43:48.429Z,100701.78
2022-11-25T06:46:23.066Z,100693.47
2022-11-25T06:48:51.400Z,100700.38
2022-11-25T06:51:18.694Z,100715.88
2022-11-25T06:53:47.334Z,100711.19
2022-11-25T06:56:17.096Z,100715.28
2022-11-25T06:58:44.592Z,100713.31
2022-11-25T07:01:15.392Z,100713.03
2022-11-25T07:03:43.219Z,100710.19
2022-11-25T07:06:12.116Z,100709.19
2022-11-25T07:08:38.747Z,100718.63
2022-11-25T07:11:07.979Z,100716.75
2022-11-25T07:13:34.785Z,100725.38
2022-11-25T07:16:06.206Z,100729.63
2022-11-25T07:18:35.386Z,100735.56
2022-11-25T07:21:07.552Z,100734.44
2022-11-25T07:23:35.545Z,100740.25
2022-11-25T07:26:07.563Z,100727.53
2022-11-25T07:28:35.273Z,100742.06
2022-11-25T07:34:02.648Z,100728.81
2022-11-25T07:36:30.558Z,100736.31
2022-11-25T07:39:02.480Z,100728.66
2022-11-25T07:41:29.704Z,100727.22
2022-11-25T07:44:01.328Z,100724.03
2022-11-25T07:46:33.592Z,100720.78
2022-11-25T07:49:03.966Z,100720.81
2022-11-25T07:51:35.053Z,100721.56
2022-11-25T07:54:03.781Z,100719.75
2022-11-25T07:56:31.116Z,100725.69
2022-11-25T07:58:57.969Z,100722.91
2022-11-25T08:01:25.513Z,100741.19
2022-11-25T08:03:52.542Z,100734.78
2022-11-25T08:06:22.524Z,100738.13
2022-11-25T08:08:50.840Z,100738.66
2022-11-25T08:11:21.158Z,100733.81
2022-11-25T08:13:48.722Z,100739.63
2022-11-25T08:16:17.476Z,100730.25
2022-11-25T08:18:44.277Z,100737.94
2022-11-25T08:21:13.290Z,100731.09
2022-11-25T08:23:43.026Z,100728.06
2022-11-25T08:26:13.123Z,100731.84
2022-11-25T08:28:41.486Z,100738.66
2022-11-25T08:31:11.889Z,100741.47
2022-11-25T08:33:39.204Z,100748.59
2022-11-25T08:36:06.666Z,100740.53
2022-11-25T08:38:33.773Z,100737.22
2022-11-25T08:41:00.961Z,100734.47
2022-11-25T08:43:29.532Z,100727.97
2022-11-25T08:45:56.799Z,100735.28
2022-11-25T08:48:23.601Z,100733.63
2022-11-25T08:50:54.089Z,100739.88
2022-11-25T08:53:21.915Z,100733.13
2022-11-25T08:55:49.560Z,100735.72
2022-11-25T08:58:16.120Z,100731.16
2022-11-25T09:00:45.511Z,100734.00
2022-11-25T09:03:12.542Z,100736.72
2022-11-25T09:05:42.321Z,100735.50
2022-11-25T09:08:10.095Z,100732.34
2022-11-25T09:10:38.609Z,100737.03
2022-11-25T09:13:05.561Z,100727.63
2022-11-25T09:15:32.578Z,100739.13
2022-11-25T09:18:05.201Z,100731.09
2022-11-25T09:20:33.613Z,100731.72
2022-11-25T09:23:01.230Z,100730.16
2022-11-25T09:25:28.734Z,100729.16
2022-11-25T09:27:56.632Z,100729.47
2022-11-25T09:30:24.001Z,100733.03
2022-11-25T09:32:52.861Z,100731.69
2022-11-25T09:35:19.784Z,100730.69
2022-11-25T09:37:46.853Z,100716.84
2022-11-25T09:40:37.396Z,100725.41
2022-11-25T09:44:06.369Z,100720.31
2022-11-25T09:46:49.253Z,100726.63
2022-11-25T09:49:51.002Z,100720.69
2022-11-25T09:52:30.214Z,100719.13
2022-11-25T09:55:10.205Z,100715.75
2022-11-25T09:57:59.439Z,100708.44
2022-11-25T10:00:36.328Z,100708.22
2022-11-25T10:03:33.676Z,100711.09
2022-11-25T10:06:06.946Z,100715.22
2022-11-25T10:09:10.579Z,100708.44
2022-11-25T10:11:46.490Z,100715.28
2022-11-25T10:14:22.142Z,100714.81
2022-11-25T10:16:55.385Z,100718.03
2022-11-25T10:20:01.676Z,100710.97
2022-11-25T10:22:34.968Z,100715.88
2022-11-25T10:25:18.254Z,100725.84
2022-11-25T10:27:59.447Z,100717.56
2022-11-25T10:30:32.554Z,100715.78
2022-11-25T10:33:15.166Z,100713.78
2022-11-25T10:35:49.130Z,100713.03
2022-11-25T10:38:29.258Z,100707.28
2022-11-25T10:40:56.051Z,100713.00
2022-11-25T10:43:26.081Z,100726.25
2022-11-25T10:46:50.085Z,100722.16
2022-11-25T10:50:02.250Z,100720.19
2022-11-25T10:52:33.185Z,100719.13
2022-11-25T10:55:16.195Z,100715.66
2022-11-25T10:57:43.198Z,100721.31
2022-11-25T11:00:32.293Z,100718.88
2022-11-25T11:03:12.543Z,100720.22
2022-11-25T11:05:46.776Z,100722.34
2022-11-25T11:08:13.452Z,100721.88
2022-11-25T11:10:40.265Z,100726.81
2022-11-25T11:13:22.158Z,100724.41
2022-11-25T11:15:49.379Z,100723.75
2022-11-25T11:18:37.797Z,100721.59
2022-11-25T11:21:08.008Z,100718.59
2022-11-25T11:23:55.655Z,100719.09
2022-11-25T11:26:25.799Z,100726.84
2022-11-25T11:29:14.301Z,100742.59
2022-11-25T11:31:51.615Z,100742.56
2022-11-25T11:34:39.673Z,100730.28
2022-11-25T11:37:22.502Z,100731.41
2022-11-25T11:40:33.614Z,100728.78
2022-11-25T11:43:27.584Z,100732.88
2022-11-25T11:45:54.033Z,100726.44
2022-11-25T11:48:23.542Z,100726.75
2022-11-25T11:51:09.425Z,100724.25
2022-11-25T11:53:53.039Z,100732.06
2022-11-25T11:56:42.618Z,100736.16
2022-11-25T11:59:23.969Z,100727.63
2022-11-25T12:02:15.777Z,100726.28
2022-11-25T12:04:55.959Z,100711.66
2022-11-25T12:07:28.500Z,100724.63
2022-11-25T12:10:13.992Z,100715.34
2022-11-25T12:12:45.508Z,100720.13
2022-11-25T12:15:24.585Z,100725.66
2022-11-25T12:18:09.440Z,100717.19
2022-11-25T12:20:56.190Z,100719.59
2022-11-25T12:23:37.629Z,100709.09
2022-11-25T12:26:12.350Z,100713.94
2022-11-25T12:28:51.994Z,100715.78
2022-11-25T12:31:37.737Z,100717.16
2022-11-25T12:34:11.947Z,100718.69
2022-11-25T12:36:46.013Z,100711.66
2022-11-25T12:39:21.096Z,100714.72
2022-11-25T12:41:54.958Z,100708.78
2022-11-25T12:44:26.910Z,100709.69
2022-11-25T12:46:55.730Z,100707.53
2022-11-25T12:49:28.126Z,100708.78
2022-11-25T12:52:09.735Z,100708.53
2022-11-25T12:54:42.243Z,100709.63
2022-11-25T12:57:20.928Z,100710.81
2022-11-25T13:00:39.826Z,100719.00
2022-11-25T13:03:35.284Z,100717.81
2022-11-25T13:06:20.626Z,100713.22
2022-11-25T13:08:59.257Z,100714.84
2022-11-25T13:11:44.798Z,100710.91
2022-11-25T13:14:28.355Z,100706.91
2022-11-25T13:16:57.517Z,100708.22
2022-11-25T13:19:24.957Z,100703.47
2022-11-25T13:22:02.870Z,100710.78
2022-11-25T13:24:41.834Z,100714.41
2022-11-25T13:27:31.425Z,100710.44
2022-11-25T13:29:59.530Z,100721.81
2022-11-25T13:32:27.688Z,100717.34
2022-11-25T13:35:31.214Z,100719.53
2022-11-25T13:37:57.838Z,100723.31
2022-11-25T13:40:28.644Z,100734.28
2022-11-25T13:42:55.627Z,100731.59
2022-11-25T13:45:44.275Z,100741.78
2022-11-25T13:48:23.366Z,100743.03
2022-11-25T13:53:39.446Z,100754.22
2022-11-25T13:56:23.513Z,100756.47
2022-11-25T13:59:11.636Z,100754.06
2022-11-25T14:02:00.476Z,100760.28
2022-11-25T14:05:06.134Z,100754.50
2022-11-25T14:07:44.648Z,100755.94
2022-11-25T14:10:26.599Z,100756.66
2022-11-25T14:13:23.559Z,100758.47
2022-11-25T14:16:08.797Z,100758.59
2022-11-25T14:19:49.541Z,100767.72
2022-11-25T14:22:08.438Z,100776.13
2022-11-25T14:25:01.247Z,100777.72
2022-11-25T14:27:34.055Z,100768.88
2022-11-25T14:30:12.190Z,100772.97
2022-11-25T14:32:56.034Z,100768.13
2022-11-25T14:35:43.555Z,100775.59
2022-11-25T14:38:26.733Z,100769.50
2022-11-25T14:41:08.478Z,100778.19
2022-11-25T14:43:45.798Z,100782.75
2022-11-25T14:46:20.663Z,100782.16
2022-11-25T14:48:57.902Z,100778.81
2022-11-25T14:51:27.143Z,100782.53
2022-11-25T14:53:54.055Z,100785.94
2022-11-25T14:56:30.761Z,100785.44
2022-11-25T14:58:58.895Z,100790.22
2022-11-25T15:01:33.795Z,100784.16
2022-11-25T15:04:18.834Z,100786.59
2022-11-25T15:07:00.689Z,100788.47
2022-11-25T15:09:31.906Z,100787.13
2022-11-25T15:12:01.954Z,100783.72
2022-11-25T15:14:34.778Z,100792.50
2022-11-25T15:17:07.847Z,100791.75
2022-11-25T15:19:36.882Z,100791.47
2022-11-25T15:22:24.364Z,100792.81
2022-11-25T15:24:55.983Z,100800.72
2022-11-25T15:27:28.297Z,100808.84
2022-11-25T15:29:57.525Z,100805.69
2022-11-25T15:32:32.767Z,100805.44
2022-11-25T15:35:01.452Z,100803.81
2022-11-25T15:37:28.858Z,100809.75
2022-11-25T15:40:29.362Z,100810.50
2022-11-25T15:43:00.142Z,100810.09
2022-11-25T15:45:33.697Z,100810.88
2022-11-25T15:48:00.460Z,100808.00
2022-11-25T15:50:28.061Z,100817.91
2022-11-25T15:52:58.932Z,100809.88
2022-11-25T15:55:34.545Z,100816.34
2022-11-25T15:58:22.781Z,100804.66
2022-11-25T16:01:06.097Z,100804.78
2022-11-25T16:03:35.439Z,100812.63
2022-11-25T16:06:17.901Z,100806.72
2022-11-25T16:08:55.990Z,100812.63
2022-11-25T16:11:25.505Z,100812.94
2022-11-25T16:13:53.232Z,100817.13
2022-11-25T16:16:24.054Z,100818.06
2022-11-25T16:18:50.644Z,100815.91
2022-11-25T16:21:21.021Z,100834.56
2022-11-25T16:23:51.730Z,100827.03
2022-11-25T16:26:29.827Z,100835.03
2022-11-25T16:28:58.914Z,100833.53
2022-11-25T16:31:26.864Z,100830.00
2022-11-25T16:34:01.773Z,100841.09
2022-11-25T16:36:28.361Z,100838.44
2022-11-25T16:38:54.889Z,100845.50
2022-11-25T16:41:24.975Z,100849.72
2022-11-25T16:43:52.193Z,100852.53
2022-11-25T16:46:20.205Z,100855.22
2022-11-25T16:48:47.640Z,100852.41
2022-11-25T16:51:22.424Z,100854.56
2022-11-25T16:53:48.939Z,100861.72
2022-11-25T16:56:20.828Z,100863.66
2022-11-25T16:58:47.647Z,100868.03
2022-11-25T17:01:16.983Z,100873.94
2022-11-25T17:03:44.029Z,100873.81
2022-11-25T17:06:21.696Z,100866.56
2022-11-25T17:08:49.488Z,100872.31
2022-11-25T17:11:22.168Z,100871.84
2022-11-25T17:13:51.965Z,100873.28
2022-11-25T17:16:22.198Z,100865.53
2022-11-25T17:18:50.108Z,100873.16
2022-11-25T17:21:17.629Z,100870.63
2022-11-25T17:23:45.196Z,100877.69
2022-11-25T17:26:22.089Z,100877.84
2022-11-25T17:28:55.989Z,100871.44
2022-11-25T17:31:26.932Z,100868.38
2022-11-25T17:33:54.048Z,100873.28
2022-11-25T17:36:21.691Z,100868.88
2022-11-25T17:38:48.490Z,100874.34
2022-11-25T17:41:18.193Z,100877.22
2022-11-25T17:43:47.589Z,100882.66
2022-11-25T17:46:16.253Z,100881.25
2022-11-25T17:48:44.016Z,100880.59
2022-11-25T17:51:14.851Z,100883.66
2022-11-25T17:53:42.034Z,100892.91
2022-11-25T17:56:30.409Z,100891.69
2022-11-25T17:59:02.482Z,100895.31
2022-11-25T18:01:29.084Z,100889.50
2022-11-25T18:03:55.756Z,100907.28
2022-11-25T18:06:23.561Z,100905.84
2022-11-25T18:08:50.063Z,100901.75
2022-11-25T18:11:19.802Z,100908.06
2022-11-25T18:13:47.599Z,100908.22
2022-11-25T18:16:18.010Z,100916.81
2022-11-25T18:18:44.668Z,100927.75
2022-11-25T18:21:11.947Z,100931.47
2022-11-25T18:23:38.469Z,100927.09
2022-11-25T18:26:05.284Z,100927.63
2022-11-25T18:28:32.537Z,100932.16
2022-11-25T18:31:03.902Z,100940.16
2022-11-25T18:33:32.069Z,100935.78
2022-11-25T18:35:58.696Z,100940.91
2022-11-25T18:38:25.338Z,100942.25
2022-11-25T18:40:53.708Z,100941.56
2022-11-25T18:43:25.382Z,100949.31
2022-11-25T18:45:54.193Z,100953.09
2022-11-25T18:48:23.606Z,100958.56
2022-11-25T18:50:51.940Z,100958.66
2022-11-25T18:53:19.113Z,100964.00
2022-11-25T18:55:46.894Z,100964.06
2022-11-25T18:58:25.092Z,100962.34
2022-11-25T19:00:52.586Z,100963.47
2022-11-25T19:03:26.153Z,100969.69
2022-11-25T19:05:58.560Z,100967.41
2022-11-25T19:08:25.341Z,100973.84
2022-11-25T19:10:52.110Z,100976.81
2022-11-25T19:13:33.214Z,100978.69
2022-11-25T19:16:07.531Z,100985.25
2022-11-25T19:18:35.157Z,100995.19
2022-11-25T19:21:01.758Z,100995.34
2022-11-25T19:23:28.911Z,101002.94
2022-11-25T19:26:11.710Z,100989.97
2022-11-25T19:28:38.405Z,100984.97
2022-11-25T19:31:05.577Z,100998.06
2022-11-25T19:33:38.935Z,100989.53
2022-11-25T19:36:06.995Z,101000.00
2022-11-25T19:38:34.879Z,100990.63
2022-11-25T19:41:01.524Z,101010.13
2022-11-25T19:43:28.208Z,101010.19
2022-11-25T19:45:57.063Z,101014.81
2022-11-25T19:48:29.417Z,101012.91
2022-11-25T19:51:04.662Z,101025.63
2022-11-25T19:53:34.124Z,101029.16
2022-11-25T19:56:04.134Z,101029.84
2022-11-25T19:58:31.071Z,101040.91
2022-11-25T20:01:00.676Z,101038.06
2022-11-25T20:03:29.989Z,101031.41
2022-11-25T20:05:56.949Z,101044.97
2022-11-25T20:08:26.547Z,101045.34
2022-11-25T20:10:54.605Z,101042.03
2022-11-25T20:13:23.464Z,101047.00
2022-11-25T20:15:50.703Z,101051.28
2022-11-25T20:18:22.367Z,101056.00
2022-11-25T20:20:56.055Z,101050.06
2022-11-25T20:23:27.616Z,101051.13
2022-11-25T20:25:54.545Z,101056.75
2022-11-25T20:28:26.736Z,101064.91
2022-11-25T20:30:53.956Z,101071.41
2022-11-25T20:33:24.377Z,101074.28
2022-11-25T20:35:57.042Z,101079.59
2022-11-25T20:38:26.806Z,101075.34
2022-11-25T20:40:56.702Z,101082.59
2022-11-25T20:43:23.165Z,101091.97
2022-11-25T20:45:50.933Z,101091.41
2022-11-25T20:48:17.625Z,101096.91
2022-11-25T20:50:44.385Z,101093.50
2022-11-25T20:53:15.930Z,101094.78
2022-11-25T20:55:43.304Z,101096.44
2022-11-25T20:58:27.608Z,101095.50
2022-11-25T21:00:57.476Z,101094.59
2022-11-25T21:03:25.568Z,101097.06
2022-11-25T21:05:53.555Z,101097.78
2022-11-25T21:08:23.341Z,101090.31
2022-11-25T21:10:55.556Z,101096.09
2022-11-25T21:13:28.329Z,101091.34
2022-11-25T21:15:55.118Z,101099.16
2022-11-25T21:18:21.993Z,101098.94
2022-11-25T21:20:51.316Z,101099.66
2022-11-25T21:23:24.609Z,101097.59
2022-11-25T21:25:51.540Z,101098.38
2022-11-25T21:28:22.169Z,101100.88
2022-11-25T21:30:49.257Z,101090.09
2022-11-25T21:33:16.617Z,101098.88
2022-11-25T21:35:46.609Z,101095.28
2022-11-25T21:38:24.994Z,101097.00
2022-11-25T21:40:54.068Z,101092.41
2022-11-25T21:43:24.347Z,101096.66
2022-11-25T21:46:06.147Z,101086.22
2022-11-25T21:48:33.662Z,101091.69
2022-11-25T21:51:00.255Z,101092.53
2022-11-25T21:53:26.944Z,101096.72
2022-11-25T21:55:53.801Z,101101.25
2022-11-25T21:58:28.721Z,101102.13
2022-11-25T22:01:00.605Z,101099.38
2022-11-25T22:03:31.636Z,101109.03
2022-11-25T22:05:58.187Z,101107.94
2022-11-25T22:08:24.775Z,101101.88
2022-11-25T22:10:54.552Z,101097.44
2022-11-25T22:13:23.491Z,101100.09
2022-11-25T22:15:57.217Z,101092.91
2022-11-25T22:18:38.561Z,101096.28
2022-11-25T22:21:05.272Z,101102.69
2022-11-25T22:23:31.756Z,101101.09
2022-11-25T22:25:58.689Z,101100.94
2022-11-25T22:28:27.853Z,101104.34
2022-11-25T22:31:05.062Z,101104.06
2022-11-25T22:33:35.248Z,101118.22
2022-11-25T22:36:02.584Z,101114.91
2022-11-25T22:38:30.040Z,101119.38
2022-11-25T22:41:00.981Z,101115.78
2022-11-25T22:43:30.528Z,101121.16
2022-11-25T22:45:57.391Z,101121.88
2022-11-25T22:48:32.545Z,101123.75
2022-11-25T22:50:59.428Z,101121.16
2022-11-25T22:53:26.232Z,101125.66
2022-11-25T22:56:00.105Z,101135.19
2022-11-25T22:58:27.666Z,101133.47
2022-11-25T23:00:56.095Z,101143.09
2022-11-25T23:03:33.389Z,101136.41
2022-11-25T23:06:01.818Z,101145.41
2022-11-25T23:08:31.577Z,101140.16
2022-11-25T23:10:58.354Z,101142.63
2022-11-25T23:13:24.920Z,101146.34
2022-11-25T23:16:00.884Z,101146.41
2022-11-25T23:18:38.437Z,101140.97
2022-11-25T23:21:18.264Z,101137.34
2022-11-25T23:23:45.113Z,101136.69
2022-11-25T23:26:12.788Z,101147.47
2022-11-25T23:28:39.443Z,101148.13
2022-11-25T23:31:06.560Z,101144.69
2022-11-25T23:33:43.879Z,101154.25
2022-11-25T23:36:18.693Z,101148.34
2022-11-25T23:38:49.911Z,101149.41
2022-11-25T23:41:26.783Z,101148.69
2022-11-25T23:43:54.201Z,101155.94
2022-11-25T23:46:24.711Z,101167.31
2022-11-25T23:48:57.361Z,101155.00
2022-11-25T23:51:25.266Z,101157.66
2022-11-25T23:53:52.406Z,101166.09
2022-11-25T23:56:19.440Z,101168.84
2022-11-25T23:58:47.517Z,101172.28
